Time;durP1;ratioP1;P1;durP2;ratioP2;P2;SDS_P1;SDS_P2;PMS_P1;PMS_P2;Temp;Humidity;BMP_temperature;BMP_pressure;BME280_temperature;BME280_humidity;BME280_pressure;Samples;Min_cycle;Max_cycle;Signal;HPM_P1;HPM_P2
2023/04/09 00:01:25;;;;;;;;;23.50;21.75;;;;;;;;5003744;28;61909;-83
2023/04/09 00:03:50;;;;;;;;;27.25;22.00;;;;;;;;5003791;28;61677;-83
2023/04/09 00:06:15;;;;;;;;;35.00;24.25;;;;;;;;5003732;28;61827;-83
2023/04/09 00:08:41;;;;;;;;;30.25;21.75;;;;;;;;4984889;28;64776;-83
2023/04/09 00:11:06;;;;;;;;;28.25;26.00;;;;;;;;4985641;28;61838;-83
2023/04/09 00:13:31;;;;;;;;;25.50;23.00;;;;;;;;4986030;28;61820;-82
2023/04/09 00:15:57;;;;;;;;;24.75;22.25;;;;;;;;4986131;28;62162;-83
2023/04/09 00:18:22;;;;;;;;;29.50;17.50;;;;;;;;4985133;28;64789;-83
2023/04/09 00:20:47;;;;;;;;;18.00;18.00;;;;;;;;4985606;28;61832;-83
2023/04/09 00:23:12;;;;;;;;;34.00;22.75;;;;;;;;4984798;28;61811;-83
2023/04/09 00:25:38;;;;;;;;;27.50;22.00;;;;;;;;4985894;28;62012;-83
2023/04/09 00:28:03;;;;;;;;;33.75;24.75;;;;;;;;4984986;28;63639;-83
2023/04/09 00:30:28;;;;;;;;;28.50;25.00;;;;;;;;5002737;28;61954;-82
2023/04/09 00:32:54;;;;;;;;;32.25;24.75;;;;;;;;4979863;28;61924;-83
2023/04/09 00:35:19;;;;;;;;;24.25;21.75;;;;;;;;4985272;28;61857;-81
2023/04/09 00:37:44;;;;;;;;;29.75;24.00;;;;;;;;5002318;28;62025;-83
2023/04/09 00:40:10;;;;;;;;;31.25;23.50;;;;;;;;5002928;28;61740;-82
2023/04/09 00:42:36;;;;;;;;;25.00;24.00;;;;;;;;5002725;28;62042;-83
2023/04/09 00:45:01;;;;;;;;;19.00;15.75;;;;;;;;5003523;28;61881;-83
2023/04/09 00:47:28;;;;;;;;;29.25;21.50;;;;;;;;5002705;28;62160;-83
2023/04/09 00:49:53;;;;;;;;;29.25;24.25;;;;;;;;4985021;28;61779;-82
2023/04/09 00:52:20;;;;;;;;;22.25;20.00;;;;;;;;4984753;28;62370;-82
2023/04/09 00:54:45;;;;;;;;;27.75;21.50;;;;;;;;5003408;28;61927;-83
2023/04/09 00:57:11;;;;;;;;;28.00;20.75;;;;;;;;5002334;28;61976;-83
2023/04/09 00:59:37;;;;;;;;;23.00;19.25;;;;;;;;5002457;28;62388;-83
2023/04/09 01:02:02;;;;;;;;;28.50;22.50;;;;;;;;4985117;28;61797;-83
2023/04/09 01:04:27;;;;;;;;;24.75;22.75;;;;;;;;4984854;28;62717;-82
2023/04/09 01:07:11;;;;;;;;;9.25;7.75;;;;;;;;5002431;28;62936;-82
2023/04/09 01:09:41;;;;;;;;;28.25;24.50;;;;;;;;4984895;28;61916;-83
2023/04/09 01:12:15;;;;;;;;;26.50;24.25;;;;;;;;4985027;28;61998;-82
2023/04/09 01:14:47;;;;;;;;;23.50;22.00;;;;;;;;5003042;28;61787;-82
2023/04/09 01:17:23;;;;;;;;;33.25;22.50;;;;;;;;4984247;28;64896;-83
2023/04/09 01:20:00;;;;;;;;;29.00;24.50;;;;;;;;4984323;28;61949;-83
2023/04/09 01:22:39;;;;;;;;;22.75;19.50;;;;;;;;4984295;28;61851;-82
2023/04/09 01:25:23;;;;;;;;;22.75;20.75;;;;;;;;4985033;28;61758;-83
2023/04/09 01:27:56;;;;;;;;;38.75;28.75;;;;;;;;4994070;28;62086;-83
2023/04/09 01:30:21;;;;;;;;;29.25;24.00;;;;;;;;5001321;28;61803;-82
2023/04/09 01:32:47;;;;;;;;;30.00;24.25;;;;;;;;4979005;28;61889;-83
2023/04/09 01:35:13;;;;;;;;;31.75;27.75;;;;;;;;5002307;28;62009;-82
2023/04/09 01:37:39;;;;;;;;;35.75;25.50;;;;;;;;5001344;28;63232;-82
2023/04/09 01:40:05;;;;;;;;;27.50;24.00;;;;;;;;4984122;28;61836;-82
2023/04/09 01:42:30;;;;;;;;;30.25;25.00;;;;;;;;4984219;28;61986;-83
2023/04/09 01:44:57;;;;;;;;;38.00;26.50;;;;;;;;4984483;28;61785;-82
2023/04/09 01:47:22;;;;;;;;;32.00;24.25;;;;;;;;4983502;28;64001;-82
2023/04/09 01:49:48;;;;;;;;;34.00;25.75;;;;;;;;5001769;28;61852;-83
2023/04/09 01:52:13;;;;;;;;;31.00;28.25;;;;;;;;4983989;28;61861;-82
2023/04/09 01:54:38;;;;;;;;;30.75;22.00;;;;;;;;5001306;28;61722;-83
2023/04/09 01:57:03;;;;;;;;;34.00;27.00;;;;;;;;5001557;28;62715;-82
2023/04/09 01:59:29;;;;;;;;;36.50;27.25;;;;;;;;5001556;28;61673;-82
2023/04/09 02:01:58;;;;;;;;;36.75;28.75;;;;;;;;4984126;28;61853;-82
2023/04/09 02:04:32;;;;;;;;;29.25;26.00;;;;;;;;5001593;28;61713;-82
2023/04/09 02:07:14;;;;;;;;;26.25;21.75;;;;;;;;5001193;28;62087;-82
2023/04/09 02:09:40;;;;;;;;;28.00;24.75;;;;;;;;5001562;28;61653;-82
2023/04/09 02:12:08;;;;;;;;;27.00;22.50;;;;;;;;5002006;28;61845;-82
2023/04/09 02:14:34;;;;;;;;;27.25;24.75;;;;;;;;4984108;28;61848;-82
2023/04/09 02:17:00;;;;;;;;;34.25;26.50;;;;;;;;5000893;28;62037;-82
2023/04/09 02:19:37;;;;;;;;;27.50;19.75;;;;;;;;4984084;28;61868;-82
2023/04/09 02:22:03;;;;;;;;;29.50;27.00;;;;;;;;4983634;28;61881;-82
2023/04/09 02:24:28;;;;;;;;;34.50;26.75;;;;;;;;4983306;28;61998;-83
2023/04/09 02:26:54;;;;;;;;;30.25;24.75;;;;;;;;4983587;28;64843;-83
2023/04/09 02:29:19;;;;;;;;;31.25;27.75;;;;;;;;4983840;28;61725;-83
2023/04/09 02:31:45;;;;;;;;;35.25;26.00;;;;;;;;4978157;28;61801;-83
2023/04/09 02:34:10;;;;;;;;;31.50;24.00;;;;;;;;4983884;28;62300;-83
2023/04/09 02:36:35;;;;;;;;;32.50;21.25;;;;;;;;5000991;28;61923;-83
2023/04/09 02:39:00;;;;;;;;;39.00;31.25;;;;;;;;5001187;28;61990;-83
2023/04/09 02:41:26;;;;;;;;;30.00;25.50;;;;;;;;5001506;28;62054;-83
2023/04/09 02:43:51;;;;;;;;;33.00;28.00;;;;;;;;5001635;28;61871;-83
2023/04/09 02:46:16;;;;;;;;;28.00;27.50;;;;;;;;4982768;28;64774;-83
2023/04/09 02:48:41;;;;;;;;;32.00;26.00;;;;;;;;4983819;28;61769;-83
2023/04/09 02:51:07;;;;;;;;;34.00;28.75;;;;;;;;4983709;28;62238;-83
2023/04/09 02:53:32;;;;;;;;;39.00;29.50;;;;;;;;4983544;28;61829;-83
2023/04/09 02:55:57;;;;;;;;;43.75;26.50;;;;;;;;4983138;28;63993;-83
2023/04/09 02:58:22;;;;;;;;;39.50;30.75;;;;;;;;4983665;28;61815;-83
2023/04/09 03:00:48;;;;;;;;;32.50;25.75;;;;;;;;4982535;28;61935;-83
2023/04/09 03:03:13;;;;;;;;;30.50;26.25;;;;;;;;4983715;28;61868;-83
2023/04/09 03:05:38;;;;;;;;;36.75;28.25;;;;;;;;5001172;28;61999;-83
2023/04/09 03:08:03;;;;;;;;;34.25;27.25;;;;;;;;4986586;28;61887;-83
2023/04/09 03:10:29;;;;;;;;;37.75;30.00;;;;;;;;5004791;28;61990;-83
2023/04/09 03:12:54;;;;;;;;;32.50;24.00;;;;;;;;5004588;28;61796;-83
2023/04/09 03:15:19;;;;;;;;;36.25;28.50;;;;;;;;4985897;28;63697;-84
2023/04/09 03:17:44;;;;;;;;;37.00;29.25;;;;;;;;4986510;28;61880;-83
2023/04/09 03:20:10;;;;;;;;;39.25;31.75;;;;;;;;5004653;28;61629;-83
2023/04/09 03:22:38;;;;;;;;;31.75;30.25;;;;;;;;5004361;28;61859;-83
2023/04/09 03:25:04;;;;;;;;;45.00;32.00;;;;;;;;4985836;28;65025;-83
2023/04/09 03:27:31;;;;;;;;;39.50;29.00;;;;;;;;4986592;28;61734;-84
2023/04/09 03:29:56;;;;;;;;;43.00;29.00;;;;;;;;5003350;28;61844;-83
2023/04/09 03:32:21;;;;;;;;;32.00;25.75;;;;;;;;4998655;28;61791;-83
2023/04/09 03:34:46;;;;;;;;;46.25;33.25;;;;;;;;5003562;28;61929;-83
2023/04/09 03:37:11;;;;;;;;;40.75;34.00;;;;;;;;5003766;28;61965;-83
2023/04/09 03:39:37;;;;;;;;;37.00;31.00;;;;;;;;4986124;28;61937;-83
2023/04/09 03:42:02;;;;;;;;;34.50;25.25;;;;;;;;4986134;28;61819;-83
2023/04/09 03:44:27;;;;;;;;;42.25;31.75;;;;;;;;5003259;28;62234;-83
2023/04/09 03:46:52;;;;;;;;;33.25;29.00;;;;;;;;5003609;28;61764;-83
2023/04/09 03:49:18;;;;;;;;;45.50;32.25;;;;;;;;4986412;28;61839;-83
2023/04/09 03:51:43;;;;;;;;;37.75;28.25;;;;;;;;5003926;28;61790;-83
2023/04/09 03:54:08;;;;;;;;;33.00;29.25;;;;;;;;5002832;28;62698;-83
2023/04/09 03:56:34;;;;;;;;;36.75;29.25;;;;;;;;5003993;28;61937;-83
2023/04/09 03:58:59;;;;;;;;;32.75;29.50;;;;;;;;4984986;28;61764;-83
2023/04/09 04:01:24;;;;;;;;;42.75;30.50;;;;;;;;4986211;28;62088;-83
2023/04/09 04:03:49;;;;;;;;;44.00;32.75;;;;;;;;5003120;28;62027;-83
2023/04/09 04:06:15;;;;;;;;;36.75;31.25;;;;;;;;4986026;28;61769;-83
2023/04/09 04:08:40;;;;;;;;;31.00;27.75;;;;;;;;4985683;28;61915;-83
2023/04/09 04:11:05;;;;;;;;;36.00;31.25;;;;;;;;5003493;28;61815;-83
2023/04/09 04:13:30;;;;;;;;;39.25;27.75;;;;;;;;5002766;28;61863;-83
2023/04/09 04:15:56;;;;;;;;;39.25;29.00;;;;;;;;5003637;28;61890;-83
2023/04/09 04:18:21;;;;;;;;;39.25;30.25;;;;;;;;5002796;28;61932;-83
2023/04/09 04:20:46;;;;;;;;;36.50;24.50;;;;;;;;5003772;28;61927;-83
2023/04/09 04:23:11;;;;;;;;;29.75;24.50;;;;;;;;4984649;28;64038;-83
2023/04/09 04:25:40;;;;;;;;;37.75;33.75;;;;;;;;4985552;28;61898;-83
2023/04/09 04:28:05;;;;;;;;;32.25;29.00;;;;;;;;5003164;28;61924;-83
2023/04/09 04:30:30;;;;;;;;;37.50;27.00;;;;;;;;4985281;28;61848;-83
2023/04/09 04:32:55;;;;;;;;;33.75;29.00;;;;;;;;4996994;28;61934;-83
2023/04/09 04:35:21;;;;;;;;;43.25;30.00;;;;;;;;5003326;28;61665;-83
2023/04/09 04:37:48;;;;;;;;;34.00;31.25;;;;;;;;5002875;28;61950;-83
2023/04/09 04:40:13;;;;;;;;;41.25;30.25;;;;;;;;5003180;28;61800;-83
2023/04/09 04:42:38;;;;;;;;;42.50;33.00;;;;;;;;4984498;28;63973;-83
2023/04/09 04:45:04;;;;;;;;;36.25;29.00;;;;;;;;5003102;28;61760;-83
2023/04/09 04:47:29;;;;;;;;;34.25;27.25;;;;;;;;5003207;28;61764;-83
2023/04/09 04:49:54;;;;;;;;;31.00;29.25;;;;;;;;4985643;28;62304;-83
2023/04/09 04:52:20;;;;;;;;;30.75;24.75;;;;;;;;4984226;28;64860;-83
2023/04/09 04:54:45;;;;;;;;;34.00;24.00;;;;;;;;5003069;28;61920;-83
2023/04/09 04:57:10;;;;;;;;;38.00;31.25;;;;;;;;4984883;28;61899;-83
2023/04/09 04:59:36;;;;;;;;;42.75;33.75;;;;;;;;4984795;28;61887;-83
2023/04/09 05:02:03;;;;;;;;;31.25;23.75;;;;;;;;4984692;28;63784;-83
2023/04/09 05:04:28;;;;;;;;;35.75;31.25;;;;;;;;4984731;28;61761;-83
2023/04/09 05:06:53;;;;;;;;;28.00;25.00;;;;;;;;4985158;28;61757;-84
2023/04/09 05:09:18;;;;;;;;;41.00;28.75;;;;;;;;4984868;28;62123;-83
2023/04/09 05:11:44;;;;;;;;;34.00;29.00;;;;;;;;5002029;28;61628;-83
2023/04/09 05:14:09;;;;;;;;;37.75;29.75;;;;;;;;5002850;28;61908;-83
2023/04/09 05:16:34;;;;;;;;;37.75;31.00;;;;;;;;4984856;28;62046;-83
2023/04/09 05:19:00;;;;;;;;;37.00;27.25;;;;;;;;4985171;28;61809;-83
2023/04/09 05:21:26;;;;;;;;;40.25;31.75;;;;;;;;4984076;28;64913;-83
2023/04/09 05:23:51;;;;;;;;;39.50;31.00;;;;;;;;4984552;28;61871;-83
2023/04/09 05:26:16;;;;;;;;;34.75;28.25;;;;;;;;4984358;28;61805;-83
2023/04/09 05:28:42;;;;;;;;;45.50;33.50;;;;;;;;4984039;28;62026;-83
2023/04/09 05:31:11;;;;;;;;;30.00;28.75;;;;;;;;4983210;28;63839;-84
2023/04/09 05:33:37;;;;;;;;;41.25;31.00;;;;;;;;4997502;28;61943;-83
2023/04/09 05:36:02;;;;;;;;;42.50;31.50;;;;;;;;5002689;28;61792;-83
2023/04/09 05:38:28;;;;;;;;;36.50;28.75;;;;;;;;4984277;28;62581;-83
2023/04/09 05:40:53;;;;;;;;;34.25;24.25;;;;;;;;5001189;28;61857;-82
2023/04/09 05:43:18;;;;;;;;;33.50;31.25;;;;;;;;5002303;28;61863;-82
2023/04/09 05:45:43;;;;;;;;;36.75;32.50;;;;;;;;4984332;28;61805;-82
2023/04/09 05:48:09;;;;;;;;;41.00;29.25;;;;;;;;4984851;28;62003;-82
2023/04/09 05:50:34;;;;;;;;;41.00;29.25;;;;;;;;5001132;28;63009;-82
2023/04/09 05:52:59;;;;;;;;;35.00;27.00;;;;;;;;5001712;28;61830;-82
2023/04/09 05:55:25;;;;;;;;;35.50;31.75;;;;;;;;4984009;28;61868;-82
2023/04/09 05:57:53;;;;;;;;;46.00;34.00;;;;;;;;5002048;28;61976;-83
2023/04/09 06:00:18;;;;;;;;;34.25;26.75;;;;;;;;4983014;28;65176;-83
2023/04/09 06:02:44;;;;;;;;;33.75;30.25;;;;;;;;5001759;28;61673;-83
2023/04/09 06:05:09;;;;;;;;;36.50;25.50;;;;;;;;4984243;28;61972;-83
2023/04/09 06:07:35;;;;;;;;;38.25;34.50;;;;;;;;4983732;28;62011;-82
2023/04/09 06:10:01;;;;;;;;;40.00;35.00;;;;;;;;4982874;28;63794;-82
2023/04/09 06:12:26;;;;;;;;;48.25;37.00;;;;;;;;5001725;28;61882;-82
2023/04/09 06:14:51;;;;;;;;;39.75;34.25;;;;;;;;4984803;28;61833;-83
2023/04/09 06:17:17;;;;;;;;;39.75;32.75;;;;;;;;4984233;28;61781;-83
2023/04/09 06:19:42;;;;;;;;;42.75;34.75;;;;;;;;5000987;28;62837;-83
2023/04/09 06:22:11;;;;;;;;;43.00;34.00;;;;;;;;5001774;28;61887;-83
2023/04/09 06:24:36;;;;;;;;;48.50;39.25;;;;;;;;4983083;28;61757;-83
2023/04/09 06:27:01;;;;;;;;;49.75;34.75;;;;;;;;4984144;28;61933;-83
2023/04/09 06:29:26;;;;;;;;;56.00;44.25;;;;;;;;4982747;28;63600;-83
2023/04/09 06:31:52;;;;;;;;;59.25;48.75;;;;;;;;4977928;28;62004;-82
2023/04/09 06:34:17;;;;;;;;;57.75;42.75;;;;;;;;5001527;28;61738;-83
2023/04/09 06:36:43;;;;;;;;;58.75;45.00;;;;;;;;5001868;28;62119;-82
2023/04/09 06:39:08;;;;;;;;;54.00;42.75;;;;;;;;5000339;28;62446;-82
2023/04/09 06:41:34;;;;;;;;;56.75;43.75;;;;;;;;4985222;28;62228;-82
2023/04/09 06:43:59;;;;;;;;;64.50;45.50;;;;;;;;5005003;28;62133;-82
2023/04/09 06:46:24;;;;;;;;;58.75;44.50;;;;;;;;4987263;28;61844;-82
2023/04/09 06:48:50;;;;;;;;;59.25;46.25;;;;;;;;5004189;28;61905;-82
2023/04/09 06:51:15;;;;;;;;;57.75;44.50;;;;;;;;5004817;28;61954;-82
2023/04/09 06:53:41;;;;;;;;;58.00;44.50;;;;;;;;5003903;28;62028;-82
2023/04/09 06:56:06;;;;;;;;;53.75;41.25;;;;;;;;5005179;28;61884;-82
2023/04/09 06:58:31;;;;;;;;;53.00;38.00;;;;;;;;5004138;28;63054;-82
2023/04/09 07:00:57;;;;;;;;;62.25;44.75;;;;;;;;5003768;28;61764;-82
2023/04/09 07:03:22;;;;;;;;;60.50;44.50;;;;;;;;4987097;28;61771;-82
2023/04/09 07:05:47;;;;;;;;;47.25;38.50;;;;;;;;4986863;28;62114;-82
2023/04/09 07:08:13;;;;;;;;;57.50;41.75;;;;;;;;5003385;28;62083;-82
2023/04/09 07:10:38;;;;;;;;;62.25;46.25;;;;;;;;5004610;28;61896;-82
2023/04/09 07:13:03;;;;;;;;;54.00;42.75;;;;;;;;5004423;28;62042;-82
2023/04/09 07:15:29;;;;;;;;;54.50;41.25;;;;;;;;5004845;28;62121;-82
2023/04/09 07:17:54;;;;;;;;;50.75;40.75;;;;;;;;5003816;28;61772;-82
2023/04/09 07:20:19;;;;;;;;;47.00;37.75;;;;;;;;4986642;28;61758;-82
2023/04/09 07:22:44;;;;;;;;;54.00;40.50;;;;;;;;5003666;28;61911;-82
2023/04/09 07:25:10;;;;;;;;;52.00;42.50;;;;;;;;4986760;28;61761;-82
2023/04/09 07:27:35;;;;;;;;;53.00;42.00;;;;;;;;5003744;28;62078;-82
2023/04/09 07:30:00;;;;;;;;;55.50;38.50;;;;;;;;4984789;28;62247;-82
2023/04/09 07:32:26;;;;;;;;;50.00;40.50;;;;;;;;4980881;28;61899;-82
2023/04/09 07:34:52;;;;;;;;;53.25;38.75;;;;;;;;5004519;28;61957;-82
2023/04/09 07:37:17;;;;;;;;;54.25;38.00;;;;;;;;5003161;28;61882;-82
2023/04/09 07:39:43;;;;;;;;;54.25;41.00;;;;;;;;5003589;28;62108;-82
2023/04/09 07:42:08;;;;;;;;;49.25;39.00;;;;;;;;5003981;28;61851;-82
2023/04/09 07:44:35;;;;;;;;;50.50;40.25;;;;;;;;4986616;28;61982;-82
2023/04/09 07:47:01;;;;;;;;;51.25;37.50;;;;;;;;5003252;28;62291;-81
2023/04/09 07:49:26;;;;;;;;;48.75;38.50;;;;;;;;4986214;28;61897;-80
2023/04/09 07:51:51;;;;;;;;;46.25;36.50;;;;;;;;4985475;28;62021;-81
2023/04/09 07:54:16;;;;;;;;;51.75;37.00;;;;;;;;4985231;28;61916;-82
2023/04/09 07:56:41;;;;;;;;;50.75;38.50;;;;;;;;4985724;28;63686;-80
2023/04/09 07:59:07;;;;;;;;;52.75;34.25;;;;;;;;4985364;28;62121;-81
2023/04/09 08:01:32;;;;;;;;;55.25;39.00;;;;;;;;5003716;28;61846;-81
2023/04/09 08:03:57;;;;;;;;;52.50;38.25;;;;;;;;4986409;28;62186;-82
2023/04/09 08:06:22;;;;;;;;;42.75;36.75;;;;;;;;4985062;28;63683;-81
2023/04/09 08:08:48;;;;;;;;;40.25;36.25;;;;;;;;5003494;28;61725;-81
2023/04/09 08:11:13;;;;;;;;;42.75;35.00;;;;;;;;5003332;28;61989;-81
2023/04/09 08:13:39;;;;;;;;;46.25;36.00;;;;;;;;4986105;28;61831;-81
2023/04/09 08:16:05;;;;;;;;;42.25;35.75;;;;;;;;5002924;28;61819;-81
2023/04/09 08:18:30;;;;;;;;;44.75;34.25;;;;;;;;5003540;28;61714;-81
2023/04/09 08:20:56;;;;;;;;;44.50;36.00;;;;;;;;4985140;28;61890;-81
2023/04/09 08:23:21;;;;;;;;;42.00;36.00;;;;;;;;5003239;28;61695;-81
2023/04/09 08:25:46;;;;;;;;;45.75;37.00;;;;;;;;5002949;28;63086;-83
2023/04/09 08:28:11;;;;;;;;;47.75;36.50;;;;;;;;5003222;28;61802;-82
2023/04/09 08:30:37;;;;;;;;;50.25;34.25;;;;;;;;4985412;28;62553;-82
2023/04/09 08:33:02;;;;;;;;;38.75;31.00;;;;;;;;4997439;28;61744;-81
2023/04/09 08:35:30;;;;;;;;;52.50;37.25;;;;;;;;5002122;28;63339;-82
2023/04/09 08:37:56;;;;;;;;;48.00;33.00;;;;;;;;4985361;28;61831;-82
2023/04/09 08:40:21;;;;;;;;;47.75;34.00;;;;;;;;4985191;28;61846;-82
2023/04/09 08:42:51;;;;;;;;;41.00;31.50;;;;;;;;5003349;28;61705;-82
2023/04/09 08:45:16;;;;;;;;;47.25;33.25;;;;;;;;5002515;28;63162;-82
2023/04/09 08:47:42;;;;;;;;;42.75;34.50;;;;;;;;4985133;28;61849;-82
2023/04/09 08:50:07;;;;;;;;;54.25;35.25;;;;;;;;5003005;28;61757;-82
2023/04/09 08:52:33;;;;;;;;;52.00;41.00;;;;;;;;5002589;28;61953;-81
2023/04/09 08:54:59;;;;;;;;;57.25;37.25;;;;;;;;5002429;28;63070;-82
2023/04/09 08:57:24;;;;;;;;;47.75;35.00;;;;;;;;5002745;28;61827;-82
2023/04/09 08:59:49;;;;;;;;;49.00;37.25;;;;;;;;4984751;28;62015;-81
2023/04/09 09:02:14;;;;;;;;;49.25;34.25;;;;;;;;4985227;28;62292;-82
2023/04/09 09:04:46;;;;;;;;;38.00;32.50;;;;;;;;5001608;28;61858;-82
2023/04/09 09:07:12;;;;;;;;;45.75;34.00;;;;;;;;5002824;28;62023;-82
2023/04/09 09:09:52;;;;;;;;;39.00;30.50;;;;;;;;5002158;28;62070;-82
2023/04/09 09:12:34;;;;;;;;;52.50;37.75;;;;;;;;4984924;28;61991;-82
2023/04/09 09:15:00;;;;;;;;;38.00;30.25;;;;;;;;5002175;28;61878;-82
2023/04/09 09:17:25;;;;;;;;;43.75;34.75;;;;;;;;4984373;28;61911;-81
2023/04/09 09:19:51;;;;;;;;;44.50;35.00;;;;;;;;4984886;28;62136;-81
2023/04/09 09:22:16;;;;;;;;;41.25;31.25;;;;;;;;5002535;28;61944;-82
2023/04/09 09:24:48;;;;;;;;;45.75;32.75;;;;;;;;4984263;28;64028;-83
2023/04/09 09:27:33;;;;;;;;;50.25;34.50;;;;;;;;5003247;28;61823;-84
2023/04/09 09:30:00;;;;;;;;;39.00;28.50;;;;;;;;4984381;28;61780;-83
2023/04/09 09:32:25;;;;;;;;;38.50;34.25;;;;;;;;4980974;28;61719;-82
2023/04/09 09:34:58;;;;;;;;;37.75;30.50;;;;;;;;4983931;28;64612;-82
2023/04/09 09:37:29;;;;;;;;;47.75;35.25;;;;;;;;5002579;28;61872;-83
2023/04/09 09:39:55;;;;;;;;;45.75;35.75;;;;;;;;4984255;28;62033;-82
2023/04/09 09:42:20;;;;;;;;;47.25;34.00;;;;;;;;5002235;28;61828;-82
2023/04/09 09:44:46;;;;;;;;;42.75;32.00;;;;;;;;4983884;28;63657;-83
2023/04/09 09:47:12;;;;;;;;;41.50;33.00;;;;;;;;5001929;28;62083;-82
2023/04/09 09:49:37;;;;;;;;;37.25;32.00;;;;;;;;5002091;28;61849;-83
2023/04/09 09:52:07;;;;;;;;;36.25;25.25;;;;;;;;4984595;28;61812;-83
2023/04/09 09:54:38;;;;;;;;;26.75;22.50;;;;;;;;4983251;28;65079;-82
2023/04/09 09:57:06;;;;;;;;;27.50;18.00;;;;;;;;4984469;28;61961;-83
2023/04/09 09:59:33;;;;;;;;;29.75;18.75;;;;;;;;4983773;28;61866;-83
2023/04/09 10:02:00;;;;;;;;;22.00;17.75;;;;;;;;4984201;28;61738;-83
2023/04/09 10:04:27;;;;;;;;;19.25;17.75;;;;;;;;4983495;28;63759;-83
2023/04/09 10:06:52;;;;;;;;;21.75;17.25;;;;;;;;4984066;28;62068;-82
2023/04/09 10:09:19;;;;;;;;;24.75;16.25;;;;;;;;4984072;28;61923;-83
2023/04/09 10:11:46;;;;;;;;;16.75;11.00;;;;;;;;5002169;28;61913;-83
2023/04/09 10:14:12;;;;;;;;;19.25;12.25;;;;;;;;4983683;28;63747;-83
2023/04/09 10:16:37;;;;;;;;;15.00;9.50;;;;;;;;4985387;28;61869;-82
2023/04/09 10:19:03;;;;;;;;;15.00;14.00;;;;;;;;5005388;28;61707;-82
2023/04/09 10:21:32;;;;;;;;;17.50;15.00;;;;;;;;4987735;28;61829;-82
2023/04/09 10:23:58;;;;;;;;;15.00;12.25;;;;;;;;4986395;28;64755;-82
2023/04/09 10:26:26;;;;;;;;;14.00;13.00;;;;;;;;5005665;28;61989;-82
2023/04/09 10:29:14;;;;;;;;;10.75;9.50;;;;;;;;4986940;28;61856;-82
2023/04/09 10:31:52;;;;;;;;;14.50;11.25;;;;;;;;5001515;28;61871;-82
2023/04/09 10:34:20;;;;;;;;;12.50;9.75;;;;;;;;4986998;28;65169;-83
2023/04/09 10:36:49;;;;;;;;;14.00;11.00;;;;;;;;4987501;28;61817;-82
2023/04/09 10:39:14;;;;;;;;;15.50;11.25;;;;;;;;5005161;28;61862;-83
2023/04/09 10:41:40;;;;;;;;;10.50;9.25;;;;;;;;5005371;28;61638;-82
2023/04/09 10:44:18;;;;;;;;;15.25;10.75;;;;;;;;5004702;28;62699;-83
2023/04/09 10:46:44;;;;;;;;;13.75;11.50;;;;;;;;5004928;28;61935;-82
2023/04/09 10:49:11;;;;;;;;;7.00;4.50;;;;;;;;5005527;28;61698;-83
2023/04/09 10:51:39;;;;;;;;;13.75;10.00;;;;;;;;5005274;28;61680;-83
2023/04/09 10:54:05;;;;;;;;;8.00;6.75;;;;;;;;5004247;28;63128;-83
2023/04/09 10:56:30;;;;;;;;;8.00;8.00;;;;;;;;5005135;28;61696;-84
2023/04/09 10:58:56;;;;;;;;;9.25;8.50;;;;;;;;4986295;28;61774;-82
2023/04/09 11:01:21;;;;;;;;;11.50;8.00;;;;;;;;4987473;28;61713;-83
2023/04/09 11:04:05;;;;;;;;;6.00;5.00;;;;;;;;4986598;28;64814;-83
2023/04/09 11:06:31;;;;;;;;;9.00;6.00;;;;;;;;5004967;28;61788;-83
2023/04/09 11:09:00;;;;;;;;;10.50;8.00;;;;;;;;5004616;28;61730;-83
2023/04/09 11:11:25;;;;;;;;;11.00;8.75;;;;;;;;5005018;28;61772;-82
2023/04/09 11:13:56;;;;;;;;;19.50;9.50;;;;;;;;4985941;28;63936;-81
2023/04/09 11:16:22;;;;;;;;;6.00;4.25;;;;;;;;4986907;28;61906;-82
2023/04/09 11:18:47;;;;;;;;;6.50;6.00;;;;;;;;4987121;28;61958;-83
2023/04/09 11:21:12;;;;;;;;;11.50;8.00;;;;;;;;5004831;28;61854;-82
2023/04/09 11:23:38;;;;;;;;;10.00;8.00;;;;;;;;4985907;28;64902;-82
2023/04/09 11:26:04;;;;;;;;;9.75;7.00;;;;;;;;5004804;28;62231;-83
2023/04/09 11:28:29;;;;;;;;;12.00;8.50;;;;;;;;4986533;28;61933;-84
2023/04/09 11:30:54;;;;;;;;;12.25;11.25;;;;;;;;5004129;28;61934;-83
2023/04/09 11:33:20;;;;;;;;;7.50;6.75;;;;;;;;4982428;28;63562;-82
2023/04/09 11:35:45;;;;;;;;;10.50;8.00;;;;;;;;5004286;28;61743;-82
2023/04/09 11:38:10;;;;;;;;;10.75;9.00;;;;;;;;4986380;28;61924;-82
2023/04/09 11:40:42;;;;;;;;;13.25;8.75;;;;;;;;4986631;28;62143;-82
2023/04/09 11:43:07;;;;;;;;;10.75;9.50;;;;;;;;5003084;28;61866;-82
2023/04/09 11:45:32;;;;;;;;;11.50;9.75;;;;;;;;5004225;28;61773;-82
2023/04/09 11:47:58;;;;;;;;;11.00;8.50;;;;;;;;5004455;28;61800;-83
2023/04/09 11:50:23;;;;;;;;;12.75;8.00;;;;;;;;5004082;28;61797;-82
2023/04/09 11:52:49;;;;;;;;;9.75;8.75;;;;;;;;5002860;28;61934;-84
2023/04/09 11:55:25;;;;;;;;;11.00;8.50;;;;;;;;4985741;28;61788;-83
2023/04/09 11:57:51;;;;;;;;;11.50;9.25;;;;;;;;4984747;28;62080;-82
2023/04/09 12:00:16;;;;;;;;;8.25;8.00;;;;;;;;4985838;28;61946;-82
2023/04/09 12:02:42;;;;;;;;;20.75;11.25;;;;;;;;5003578;28;63122;-83
2023/04/09 12:05:08;;;;;;;;;11.50;11.00;;;;;;;;5003747;28;61876;-83
2023/04/09 12:07:33;;;;;;;;;10.25;8.50;;;;;;;;4986130;28;61812;-84
2023/04/09 12:10:05;;;;;;;;;9.75;9.50;;;;;;;;5003745;28;62177;-83
2023/04/09 12:12:30;;;;;;;;;11.25;10.25;;;;;;;;4984870;28;64014;-83
2023/04/09 12:14:58;;;;;;;;;14.75;10.50;;;;;;;;5003510;28;61936;-83
2023/04/09 12:17:23;;;;;;;;;14.50;8.00;;;;;;;;4985949;28;61782;-82
2023/04/09 12:19:48;;;;;;;;;13.25;9.00;;;;;;;;4985803;28;61796;-82
2023/04/09 12:22:13;;;;;;;;;23.25;16.50;;;;;;;;4984977;28;65146;-83
2023/04/09 12:24:39;;;;;;;;;9.75;9.25;;;;;;;;5003791;28;62024;-84
2023/04/09 12:27:04;;;;;;;;;11.00;11.00;;;;;;;;4985566;28;61776;-83
2023/04/09 12:29:29;;;;;;;;;11.75;11.00;;;;;;;;5003187;28;62013;-84
2023/04/09 12:31:55;;;;;;;;;11.00;8.00;;;;;;;;5001004;28;62378;-83
2023/04/09 12:34:20;;;;;;;;;12.75;9.50;;;;;;;;4985674;28;61855;-84
2023/04/09 12:36:45;;;;;;;;;13.00;11.75;;;;;;;;4985905;28;61741;-83
2023/04/09 12:39:10;;;;;;;;;15.25;12.25;;;;;;;;5002469;28;62256;-84
2023/04/09 12:41:36;;;;;;;;;13.25;13.00;;;;;;;;4984481;28;63936;-83
2023/04/09 12:44:01;;;;;;;;;10.50;10.50;;;;;;;;5003447;28;61976;-84
2023/04/09 12:46:27;;;;;;;;;17.25;11.25;;;;;;;;4985259;28;61821;-85
2023/04/09 12:48:52;;;;;;;;;11.00;10.00;;;;;;;;4985848;28;61806;-84
2023/04/09 12:51:17;;;;;;;;;15.00;9.50;;;;;;;;4984890;28;63455;-84
2023/04/09 12:53:43;;;;;;;;;9.00;9.00;;;;;;;;5002778;28;61808;-83
2023/04/09 12:56:08;;;;;;;;;10.50;10.50;;;;;;;;4985127;28;61805;-83
2023/04/09 12:58:34;;;;;;;;;13.00;10.00;;;;;;;;5003266;28;62165;-84
2023/04/09 13:00:59;;;;;;;;;13.75;10.50;;;;;;;;4984197;28;62415;-83
2023/04/09 13:03:26;;;;;;;;;11.33;10.00;;;;;;;;4985167;28;61839;-83
2023/04/09 13:05:51;;;;;;;;;10.33;9.33;;;;;;;;4985532;28;61867;-83
2023/04/09 13:08:16;;;;;;;;;11.67;10.00;;;;;;;;4985051;28;61763;-83
2023/04/09 13:10:42;;;;;;;;;12.33;10.67;;;;;;;;5002020;28;62542;-83
2023/04/09 13:13:11;;;;;;;;;7.67;7.67;;;;;;;;4985052;28;61872;-85
2023/04/09 13:15:42;;;;;;;;;10.33;9.33;;;;;;;;4985069;28;61747;-84
2023/04/09 13:18:07;;;;;;;;;12.00;12.00;;;;;;;;4985199;28;62140;-85
2023/04/09 13:20:33;;;;;;;;;9.67;8.67;;;;;;;;4984236;28;63731;-84
2023/04/09 13:22:58;;;;;;;;;8.67;8.67;;;;;;;;5002208;28;62024;-84
2023/04/09 13:25:23;;;;;;;;;9.67;9.00;;;;;;;;4984843;28;61886;-85
2023/04/09 13:27:48;;;;;;;;;10.67;8.00;;;;;;;;5002853;28;62034;-84
2023/04/09 13:30:14;;;;;;;;;13.00;9.00;;;;;;;;4983699;28;63556;-85
2023/04/09 13:32:40;;;;;;;;;11.00;9.33;;;;;;;;4982922;28;62045;-84
2023/04/09 13:35:05;;;;;;;;;10.33;9.00;;;;;;;;4984540;28;61881;-85
2023/04/09 13:37:30;;;;;;;;;15.00;9.33;;;;;;;;5002771;28;62095;-84
2023/04/09 13:39:56;;;;;;;;;14.00;13.33;;;;;;;;4983404;28;63836;-84
2023/04/09 13:42:21;;;;;;;;;9.67;8.33;;;;;;;;5002341;28;62105;-84
2023/04/09 13:44:46;;;;;;;;;11.33;10.00;;;;;;;;5002411;28;62030;-84
2023/04/09 13:47:12;;;;;;;;;12.67;9.00;;;;;;;;4984832;28;62108;-84
2023/04/09 13:49:38;;;;;;;;;10.00;8.67;;;;;;;;4983721;28;64774;-84
2023/04/09 13:52:04;;;;;;;;;9.00;9.00;;;;;;;;4983459;28;62599;-85
2023/04/09 13:54:29;;;;;;;;;9.33;7.00;;;;;;;;5001807;28;62037;-82
2023/04/09 13:56:55;;;;;;;;;9.00;7.67;;;;;;;;5002593;28;61791;-85
2023/04/09 13:59:20;;;;;;;;;10.00;7.67;;;;;;;;4983425;28;64932;-85
2023/04/09 14:01:45;;;;;;;;;7.00;7.00;;;;;;;;4984208;28;61794;-84
2023/04/09 14:04:11;;;;;;;;;11.33;6.67;;;;;;;;4984535;28;62043;-85
2023/04/09 14:06:36;;;;;;;;;7.67;7.33;;;;;;;;4984457;28;61885;-85
2023/04/09 14:09:01;;;;;;;;;7.00;7.00;;;;;;;;4983257;28;63518;-85
2023/04/09 14:11:27;;;;;;;;;5.33;5.00;;;;;;;;4984585;28;62042;-85
2023/04/09 14:13:52;;;;;;;;;7.33;6.67;;;;;;;;5001983;28;61824;-85
2023/04/09 14:16:18;;;;;;;;;6.33;6.33;;;;;;;;5002468;28;61872;-85